• Join FlightAware (Why Join?)
  • Login
  • US Flag 
 
07:25PM EST


 

Airport Tracker/Info


-or-


 

Live Flight TrackerFlight Track Log ✈ N21714 ✈ 28-Apr-2013 ✈ KPHX - KPGA

Flight Track Log - Related Links

Times and Time Zones

All times are in EDT time to prevent confusion due to time zone crossing. See the N21714 flight status page for this flight to view local times or setup timezone preferences in your user account.

Time Position Orientation Groundspeed Altitude Reporting Facility
EDT Latitude Longitude Course Direction KTS MPH feet Rate Location/Type
12:59PM 33.7833 -111.9167 North 79 91 5,900  Level Phoenix TRACON
01:00PM 33.7828 -111.9194 256° West 81 93 6,000 420 Climbing Albuquerque Center
01:01PM 33.7978 -111.9042 40° Northeast 73 84 6,500 360 Climbing Albuquerque Center
01:02PM 33.8139 -111.8844 45° Northeast 70 81 6,800 240 Climbing Albuquerque Center
01:03PM 33.8283 -111.8658 47° Northeast 75 86 7,100 360 Climbing Albuquerque Center
01:04PM 33.8450 -111.8464 44° Northeast 82 94 7,600 480 Climbing Albuquerque Center
01:05PM 33.6708 -111.9749 North  Level Estimated
01:05PM 33.8633 -111.8250 44° Northeast 90 104 8,100  Level Albuquerque Center
01:06PM 33.8769 -111.8072 47° Northeast 77 89 8,500 360 Climbing Albuquerque Center
01:07PM 33.8953 -111.7856 44° Northeast 78 90 8,900 300 Climbing Albuquerque Center
01:08PM 33.9100 -111.7678 45° Northeast 76 87 9,200 240 Climbing Albuquerque Center
01:09PM 33.9244 -111.7497 46° Northeast 76 87 9,500 180 Climbing Albuquerque Center
01:10PM 33.9414 -111.7292 45° Northeast 88 101 9,600  Climbing Albuquerque Center
01:11PM 33.9614 -111.7067 43° Northeast 99 114 9,600  Level Albuquerque Center
01:12PM 33.9878 -111.6856 34° Northeast 94 108 9,600  Level Albuquerque Center
01:13PM 34.0089 -111.6656 38° Northeast 99 114 9,600  Level Albuquerque Center
01:14PM 34.0317 -111.6439 38° Northeast 106 122 9,600  Level Albuquerque Center
01:15PM 34.0539 -111.6233 37° Northeast 102 117 9,600  Level Albuquerque Center
01:16PM 34.0831 -111.5958 38° Northeast 110 127 9,600 -60 Level Albuquerque Center
01:17PM 34.1047 -111.5753 38° Northeast 103 119 9,500 -60 Descending Albuquerque Center
01:18PM 34.1253 -111.5575 36° Northeast 92 106 9,500  Level Albuquerque Center
01:19PM 34.1469 -111.5378 37° Northeast 95 109 9,500  Level Albuquerque Center
01:20PM 34.1689 -111.5181 37° Northeast 99 114 9,500  Level Albuquerque Center
01:22PM 34.1886 -111.5000 37° Northeast 92 106 9,500  Level Albuquerque Center
01:23PM 34.2111 -111.4794 37° Northeast 100 115 9,500  Level Albuquerque Center
01:24PM 34.2367 -111.4556 38° Northeast 97 112 9,500  Level Albuquerque Center
01:25PM 34.2567 -111.4378 36° Northeast 92 106 9,500  Level Albuquerque Center
01:26PM 34.2775 -111.4181 38° Northeast 93 107 9,600  Climbing Albuquerque Center
01:27PM 34.3008 -111.3967 37° Northeast 98 113 9,500 -60 Descending Albuquerque Center
01:28PM 34.3225 -111.3769 37° Northeast 100 115 9,500  Level Albuquerque Center
01:29PM 34.3436 -111.3569 38° Northeast 98 113 9,600  Climbing Albuquerque Center
01:30PM 34.3678 -111.3347 37° Northeast 95 109 9,500 -60 Descending Albuquerque Center
01:31PM 34.3856 -111.3186 37° Northeast 87 100 9,500  Level Albuquerque Center
01:32PM 34.4056 -111.3000 38° Northeast 88 101 9,500  Level Albuquerque Center
01:33PM 34.4242 -111.2825 38° Northeast 86 99 9,500  Level Albuquerque Center
01:34PM 34.4406 -111.2681 36° Northeast 77 89 9,500  Level Albuquerque Center
01:35PM 34.4556 -111.2533 39° Northeast 72 83 9,500 60 Level Albuquerque Center
01:36PM 34.4764 -111.2372 33° Northeast 73 84 9,700 180 Climbing Albuquerque Center
01:38PM 34.5152 -111.2090 31° Northeast  Level FlightAware Approximate
01:45PM 34.6944 -111.0785 31° Northeast  Level FlightAware Approximate
01:46PM 34.7200 -111.0598 31° Northeast  Level FlightAware Approximate
01:47PM 34.7451 -111.0401 35° Northeast  Level FlightAware Approximate
01:48PM 34.7697 -111.0195 35° Northeast  Level FlightAware Approximate
01:49PM 34.7943 -110.9989 35° Northeast  Level FlightAware Approximate
01:50PM 34.8189 -110.9782 35° Northeast  Level FlightAware Approximate
01:51PM 34.8434 -110.9576 35° Northeast  Level FlightAware Approximate
01:52PM 34.8680 -110.9369 35° Northeast  Level FlightAware Approximate
01:53PM 34.8926 -110.9162 35° Northeast  Level FlightAware Approximate
01:54PM 34.9171 -110.8956 35° Northeast  Level FlightAware Approximate
01:55PM 34.9417 -110.8748 35° Northeast  Level FlightAware Approximate
01:56PM 34.9662 -110.8541 35° Northeast  Level FlightAware Approximate
01:57PM 34.9908 -110.8334 35° Northeast  Level FlightAware Approximate
01:58PM 35.0153 -110.8127 35° Northeast  Level FlightAware Approximate
01:59PM 35.0398 -110.7919 35° Northeast  Level FlightAware Approximate
02:00PM 35.0668 -110.7890 345° North  Level FlightAware Approximate
02:01PM 35.0956 -110.7988 345° North  Level FlightAware Approximate
02:02PM 35.1244 -110.8085 345° North  Level FlightAware Approximate
02:03PM 35.1531 -110.8183 344° North  Level FlightAware Approximate
02:04PM 35.1819 -110.8280 344° North  Level FlightAware Approximate
02:05PM 35.2107 -110.8378 344° North  Level FlightAware Approximate
02:06PM 35.2394 -110.8476 344° North  Level FlightAware Approximate
02:07PM 35.2682 -110.8574 344° North  Level FlightAware Approximate
02:08PM 35.2969 -110.8672 344° North  Level FlightAware Approximate
02:09PM 35.3257 -110.8770 344° North  Level FlightAware Approximate
02:10PM 35.3545 -110.8868 344° North  Level FlightAware Approximate
02:11PM 35.3832 -110.8966 344° North  Level FlightAware Approximate
02:12PM 35.4119 -110.9064 344° North  Level FlightAware Approximate
02:13PM 35.4407 -110.9162 344° North  Level FlightAware Approximate
02:14PM 35.4695 -110.9261 344° North  Level FlightAware Approximate
02:15PM 35.4982 -110.9359 344° North  Level FlightAware Approximate
02:16PM 35.5270 -110.9458 344° North  Level FlightAware Approximate
02:17PM 35.5557 -110.9556 344° North  Level FlightAware Approximate
02:18PM 35.5844 -110.9655 344° North  Level FlightAware Approximate
02:19PM 35.6132 -110.9753 344° North  Level FlightAware Approximate
02:20PM 35.6419 -110.9852 344° North  Level FlightAware Approximate
02:21PM 35.6707 -110.9951 344° North  Level FlightAware Approximate
02:22PM 35.6995 -111.0050 344° North  Level FlightAware Approximate
02:23PM 35.7282 -111.0149 344° North  Level FlightAware Approximate
02:24PM 35.7569 -111.0251 344° North  Level FlightAware Approximate
02:25PM 35.7855 -111.0354 344° North  Level FlightAware Approximate
02:26PM 35.8142 -111.0456 344° North  Level FlightAware Approximate
02:27PM 35.8428 -111.0559 344° North  Level FlightAware Approximate
02:28PM 35.8715 -111.0662 344° North  Level FlightAware Approximate
02:29PM 35.9002 -111.0765 344° North  Level FlightAware Approximate
02:30PM 35.9288 -111.0868 344° North  Level FlightAware Approximate
02:31PM 35.9575 -111.0971 344° North  Level FlightAware Approximate
02:32PM 35.9861 -111.1075 344° North  Level FlightAware Approximate
02:33PM 36.0148 -111.1178 344° North  Level FlightAware Approximate
02:34PM 36.0434 -111.1281 344° North  Level FlightAware Approximate
02:35PM 36.0721 -111.1385 344° North  Level FlightAware Approximate
02:36PM 36.1007 -111.1488 344° North  Level FlightAware Approximate
02:37PM 36.1294 -111.1592 344° North  Level FlightAware Approximate
02:38PM 36.1580 -111.1695 344° North  Level FlightAware Approximate
02:39PM 36.1867 -111.1799 344° North  Level FlightAware Approximate
02:40PM 36.2153 -111.1903 344° North  Level FlightAware Approximate
02:41PM 36.2440 -111.2007 344° North  Level FlightAware Approximate
02:42PM 36.2726 -111.2111 344° North  Level FlightAware Approximate
02:43PM 36.3013 -111.2215 344° North  Level FlightAware Approximate
02:44PM 36.3299 -111.2319 344° North  Level FlightAware Approximate
02:45PM 36.3586 -111.2423 344° North  Level FlightAware Approximate
02:46PM 36.3872 -111.2528 344° North  Level FlightAware Approximate
02:47PM 36.4158 -111.2632 344° North  Level FlightAware Approximate
02:48PM 36.4445 -111.2736 344° North  Level FlightAware Approximate
02:49PM 36.4731 -111.2841 344° North  Level FlightAware Approximate
02:50PM 36.5018 -111.2945 344° North  Level FlightAware Approximate
02:51PM 36.5310 -111.3000 North  Level FlightAware Approximate
02:52PM 36.5603 -111.3041 342° North  Level FlightAware Approximate
02:53PM 36.5887 -111.3154 342° North  Level FlightAware Approximate
02:54PM 36.6172 -111.3268 342° North  Level FlightAware Approximate
02:55PM 36.6456 -111.3381 342° North  Level FlightAware Approximate
02:56PM 36.6740 -111.3495 342° North  Level FlightAware Approximate
02:57PM 36.7024 -111.3608 342° North  Level FlightAware Approximate
02:58PM 36.7309 -111.3722 342° North  Level FlightAware Approximate
02:59PM 36.7593 -111.3836 342° North  Level FlightAware Approximate
03:00PM 36.7877 -111.3950 342° North  Level FlightAware Approximate
03:01PM 36.8161 -111.4063 342° North  Level FlightAware Approximate
03:02PM 36.8445 -111.4177 342° North  Level FlightAware Approximate
03:03PM 36.8730 -111.4292 342° North  Level FlightAware Approximate
03:04PM 36.9023 -111.4333 North  Level FlightAware Approximate
03:05PM 36.9167 -111.4333 North  Level FlightAware Approximate
03:06PM 36.9261 -111.4484 North  Level Estimated
03:07PM 36.9261 -111.4484 North  Level Estimated
03:08PM 36.9261 -111.4484 North  Level Estimated
03:09PM 36.9261 -111.4484 North  Level Estimated
03:10PM 36.9261 -111.4484 North  Level Estimated
03:11PM 36.9261 -111.4484 North  Level Estimated
03:12PM 36.9261 -111.4484 North  Level Estimated
03:13PM 36.9261 -111.4484 North  Level Estimated
03:14PM 36.9261 -111.4484 North  Level Estimated
03:15PM 36.9261 -111.4484 North  Level Estimated
03:16PM 36.9261 -111.4484 North  Level Estimated
03:17PM 36.9261 -111.4484 North  Level Estimated
03:18PM 36.9261 -111.4484 North  Level Estimated
03:19PM 36.9261 -111.4484 North  Level Estimated
03:20PM 36.9261 -111.4484 North  Level Estimated
03:21PM 36.9261 -111.4484 North  Level Estimated
03:22PM 36.9261 -111.4484 North  Level Estimated
03:23PM 36.9261 -111.4484 North  Level Estimated
03:24PM 36.9261 -111.4484 North  Level Estimated